createdAt,value
2018-03-31T00:00:58.986Z,7.47
2018-03-31T00:01:59.042Z,7.39
2018-03-31T00:02:59.101Z,7.41
2018-03-31T00:03:59.154Z,7.41
2018-03-31T00:04:59.210Z,7.39
2018-03-31T00:05:59.269Z,7.33
2018-03-31T00:06:59.324Z,7.37
2018-03-31T00:07:59.381Z,7.42
2018-03-31T00:08:59.437Z,7.29
2018-03-31T00:09:59.495Z,7.36
2018-03-31T00:10:59.550Z,7.33
2018-03-31T00:11:59.606Z,7.36
2018-03-31T00:12:59.663Z,7.42
2018-03-31T00:13:59.723Z,7.41
2018-03-31T00:14:59.775Z,7.33
2018-03-31T00:15:59.832Z,7.32
2018-03-31T00:16:59.894Z,7.45
2018-03-31T00:17:59.945Z,7.34
2018-03-31T00:19:00.001Z,7.30
2018-03-31T00:20:00.068Z,7.33
2018-03-31T00:21:00.114Z,7.33
2018-03-31T00:22:00.172Z,7.37
2018-03-31T00:23:00.259Z,7.24
2018-03-31T00:24:00.283Z,7.29
2018-03-31T00:25:00.339Z,7.27
2018-03-31T00:26:00.397Z,7.24
2018-03-31T00:27:00.451Z,7.24
2018-03-31T00:28:00.507Z,7.29
2018-03-31T00:29:00.563Z,7.29
2018-03-31T00:30:00.621Z,7.21
2018-03-31T00:31:00.676Z,7.27
2018-03-31T00:32:00.736Z,7.19
2018-03-31T00:33:00.788Z,7.33
2018-03-31T00:34:00.847Z,7.32
2018-03-31T00:35:00.900Z,7.32
2018-03-31T00:36:00.957Z,7.34
2018-03-31T00:37:01.014Z,7.36
2018-03-31T00:38:01.070Z,7.34
2018-03-31T00:39:01.126Z,7.34
2018-03-31T00:40:01.182Z,7.36
2018-03-31T00:41:01.240Z,7.23
2018-03-31T00:42:01.296Z,7.23
2018-03-31T00:43:01.350Z,7.16
2018-03-31T00:44:01.409Z,7.23
2018-03-31T00:45:01.469Z,7.18
2018-03-31T00:46:01.671Z,7.24
2018-03-31T00:47:01.576Z,7.23
2018-03-31T00:48:01.633Z,7.16
2018-03-31T00:49:01.690Z,7.04
2018-03-31T00:50:01.747Z,7.04
2018-03-31T00:51:01.805Z,7.04
2018-03-31T00:52:01.860Z,7.07
2018-03-31T00:53:01.915Z,7.11
2018-03-31T00:54:01.974Z,7.01
2018-03-31T00:55:02.026Z,7.07
2018-03-31T00:56:02.084Z,7.01
2018-03-31T00:57:02.140Z,7.07
2018-03-31T00:58:02.198Z,6.96
2018-03-31T00:59:02.252Z,7.08
2018-03-31T01:00:02.309Z,6.91
2018-03-31T01:01:02.366Z,7.00
2018-03-31T01:02:02.421Z,7.04
2018-03-31T01:03:02.476Z,7.05
2018-03-31T01:04:02.540Z,7.00
2018-03-31T01:05:02.594Z,7.09
2018-03-31T01:06:02.647Z,7.08
2018-03-31T01:07:02.704Z,7.08
2018-03-31T01:08:02.759Z,7.09
2018-03-31T01:09:02.816Z,7.23
2018-03-31T01:10:02.872Z,7.08
2018-03-31T01:11:02.931Z,7.18
2018-03-31T01:12:02.984Z,7.07
2018-03-31T01:13:03.041Z,7.16
2018-03-31T01:14:03.098Z,7.07
2018-03-31T01:15:03.153Z,7.08
2018-03-31T01:16:03.208Z,7.19
2018-03-31T01:17:03.264Z,7.15
2018-03-31T01:18:03.321Z,7.11
2018-03-31T01:19:03.378Z,7.08
2018-03-31T01:20:03.441Z,6.99
2018-03-31T01:21:03.490Z,6.81
2018-03-31T01:22:03.548Z,6.87
2018-03-31T01:23:03.603Z,6.90
2018-03-31T01:24:03.659Z,6.89
2018-03-31T01:25:03.716Z,6.86
2018-03-31T01:26:04.024Z,6.90
2018-03-31T01:27:03.827Z,6.94
2018-03-31T01:28:03.883Z,6.90
2018-03-31T01:29:03.939Z,6.90
2018-03-31T01:30:03.996Z,6.82
2018-03-31T01:31:04.051Z,6.78
2018-03-31T01:32:04.109Z,6.82
2018-03-31T01:33:04.163Z,6.86
2018-03-31T01:34:04.222Z,6.71
2018-03-31T01:35:04.275Z,6.64
2018-03-31T01:36:04.332Z,6.60
2018-03-31T01:37:04.389Z,6.57
2018-03-31T01:38:04.443Z,6.55
2018-03-31T01:39:04.499Z,6.55
2018-03-31T01:40:04.557Z,6.54
2018-03-31T01:41:04.613Z,6.58
2018-03-31T01:42:04.667Z,6.57
2018-03-31T01:43:04.724Z,6.48
2018-03-31T01:44:04.779Z,6.48
2018-03-31T01:45:04.835Z,6.38
2018-03-31T01:46:04.891Z,6.40
2018-03-31T01:47:04.945Z,6.36
2018-03-31T01:48:05.001Z,6.05
2018-03-31T01:49:05.058Z,6.06
2018-03-31T01:50:05.113Z,6.13
2018-03-31T01:51:05.199Z,5.98
2018-03-31T01:52:05.224Z,6.08
2018-03-31T01:53:05.280Z,6.24
2018-03-31T01:54:05.336Z,6.17
2018-03-31T01:55:05.390Z,6.19
2018-03-31T01:56:05.448Z,6.35
2018-03-31T01:57:05.509Z,6.30
2018-03-31T01:58:05.557Z,6.32
2018-03-31T01:59:05.614Z,6.32
2018-03-31T02:00:05.669Z,6.42
2018-03-31T02:01:05.725Z,6.20
2018-03-31T02:02:05.783Z,6.16
2018-03-31T02:03:05.835Z,6.35
2018-03-31T02:04:05.893Z,6.30
2018-03-31T02:05:05.946Z,6.36
2018-03-31T02:06:06.002Z,6.36
2018-03-31T02:07:06.057Z,6.39
2018-03-31T02:08:06.119Z,6.38
2018-03-31T02:09:06.168Z,6.27
2018-03-31T02:10:06.230Z,6.32
2018-03-31T02:11:06.280Z,6.24
2018-03-31T02:12:06.340Z,6.05
2018-03-31T02:13:06.389Z,6.02
2018-03-31T02:14:06.447Z,5.92
2018-03-31T02:15:06.501Z,6.02
2018-03-31T02:16:06.556Z,5.90
2018-03-31T02:17:06.612Z,5.93
2018-03-31T02:18:06.669Z,5.92
2018-03-31T02:19:06.722Z,5.87
2018-03-31T02:20:06.783Z,5.81
2018-03-31T02:21:06.834Z,5.87
2018-03-31T02:22:06.891Z,5.88
2018-03-31T02:23:06.943Z,5.87
2018-03-31T02:24:06.999Z,5.87
2018-03-31T02:25:07.054Z,5.88
2018-03-31T02:26:07.110Z,5.69
2018-03-31T02:27:07.166Z,5.85
2018-03-31T02:28:07.221Z,5.87
2018-03-31T02:29:07.290Z,5.90
2018-03-31T02:30:07.349Z,5.85
2018-03-31T02:31:07.389Z,5.92
2018-03-31T02:32:07.443Z,5.85
2018-03-31T02:33:07.498Z,5.84
2018-03-31T02:34:07.553Z,5.88
2018-03-31T02:35:07.608Z,5.81
2018-03-31T02:36:07.663Z,5.78
2018-03-31T02:37:07.718Z,5.81
2018-03-31T02:38:07.776Z,5.74
2018-03-31T02:39:07.829Z,5.78
2018-03-31T02:40:07.883Z,5.78
2018-03-31T02:41:07.940Z,5.77
2018-03-31T02:42:07.995Z,5.69
2018-03-31T02:43:08.050Z,5.70
2018-03-31T02:44:08.105Z,5.58
2018-03-31T02:45:08.160Z,5.59
2018-03-31T02:46:08.222Z,5.63
2018-03-31T02:47:08.269Z,5.70
2018-03-31T02:48:08.326Z,5.80
2018-03-31T02:49:08.380Z,5.73
2018-03-31T02:50:08.444Z,5.81
2018-03-31T02:51:08.492Z,5.87
2018-03-31T02:52:08.545Z,5.60
2018-03-31T02:53:08.602Z,5.45
2018-03-31T02:54:08.656Z,5.47
2018-03-31T02:55:08.711Z,5.47
2018-03-31T02:56:08.767Z,5.52
2018-03-31T02:57:08.823Z,5.45
2018-03-31T02:58:08.878Z,5.47
2018-03-31T02:59:08.932Z,5.48
2018-03-31T03:00:08.989Z,5.37
2018-03-31T03:01:09.043Z,5.33
2018-03-31T03:02:09.099Z,5.45
2018-03-31T03:03:09.156Z,5.24
2018-03-31T03:04:09.207Z,5.19
2018-03-31T03:05:09.263Z,5.09
2018-03-31T03:06:09.318Z,5.14
2018-03-31T03:07:09.373Z,4.94
2018-03-31T03:08:09.428Z,5.15
2018-03-31T03:09:09.483Z,5.15
2018-03-31T03:10:09.544Z,5.11
2018-03-31T03:11:09.592Z,5.08
2018-03-31T03:12:09.647Z,5.06
2018-03-31T03:13:09.703Z,5.04
2018-03-31T03:14:09.757Z,4.99
2018-03-31T03:15:09.814Z,5.02
2018-03-31T03:16:09.866Z,5.01
2018-03-31T03:17:09.923Z,5.05
2018-03-31T03:18:09.978Z,5.02
2018-03-31T03:19:10.032Z,4.99
2018-03-31T03:20:10.087Z,4.91
2018-03-31T03:21:10.142Z,5.01
2018-03-31T03:22:10.195Z,5.06
2018-03-31T03:23:10.249Z,4.99
2018-03-31T03:24:10.305Z,4.94
2018-03-31T03:25:10.360Z,4.91
2018-03-31T03:26:10.418Z,4.94
2018-03-31T03:27:10.468Z,5.02
2018-03-31T03:28:10.523Z,5.09
2018-03-31T03:29:10.578Z,5.01
2018-03-31T03:30:10.633Z,5.05
2018-03-31T03:31:10.688Z,5.17
2018-03-31T03:32:10.745Z,5.24
2018-03-31T03:33:10.796Z,5.11
2018-03-31T03:34:10.852Z,5.19
2018-03-31T03:35:10.906Z,5.27
2018-03-31T03:36:10.961Z,5.08
2018-03-31T03:37:11.015Z,5.08
2018-03-31T03:38:11.069Z,4.83
2018-03-31T03:39:11.123Z,4.68
2018-03-31T03:40:11.179Z,4.56
2018-03-31T03:41:11.233Z,4.49
2018-03-31T03:42:11.288Z,4.46
2018-03-31T03:43:11.344Z,4.43
2018-03-31T03:44:11.397Z,4.42
2018-03-31T03:45:11.452Z,4.35
2018-03-31T03:46:11.564Z,4.42
2018-03-31T03:47:11.560Z,4.51
2018-03-31T03:48:11.865Z,4.54
2018-03-31T03:49:11.672Z,4.57
2018-03-31T03:50:11.723Z,4.61
2018-03-31T03:51:11.777Z,4.64
2018-03-31T03:52:11.832Z,4.47
2018-03-31T03:53:11.888Z,4.53
2018-03-31T03:54:11.942Z,4.44
2018-03-31T03:55:11.994Z,4.53
2018-03-31T03:56:12.057Z,4.39
2018-03-31T03:57:12.104Z,4.32
2018-03-31T03:58:12.159Z,4.47
2018-03-31T03:59:12.212Z,4.51
2018-03-31T04:00:12.294Z,4.51
2018-03-31T04:01:12.346Z,4.61
2018-03-31T04:02:12.377Z,4.36
2018-03-31T04:03:12.430Z,4.42
2018-03-31T04:04:12.485Z,4.54
2018-03-31T04:05:12.544Z,4.49
2018-03-31T04:06:12.895Z,4.47
2018-03-31T04:07:12.647Z,4.36
2018-03-31T04:08:12.702Z,4.26
2018-03-31T04:09:12.756Z,4.20
2018-03-31T04:10:12.811Z,4.14
2018-03-31T04:11:12.864Z,4.26
2018-03-31T04:12:12.917Z,4.35
2018-03-31T04:13:12.972Z,4.49
2018-03-31T04:14:13.073Z,4.53
2018-03-31T04:15:13.080Z,4.54
2018-03-31T04:16:13.136Z,4.54
2018-03-31T04:17:13.190Z,4.32
2018-03-31T04:18:13.244Z,4.21
2018-03-31T04:19:13.297Z,4.14
2018-03-31T04:20:13.353Z,4.25
2018-03-31T04:21:13.409Z,4.31
2018-03-31T04:22:13.460Z,4.26
2018-03-31T04:23:13.512Z,4.20
2018-03-31T04:24:13.567Z,4.10
2018-03-31T04:25:13.622Z,3.98
2018-03-31T04:26:13.676Z,3.96
2018-03-31T04:27:13.729Z,3.98
2018-03-31T04:28:13.784Z,4.08
2018-03-31T04:29:13.837Z,4.04
2018-03-31T04:30:13.892Z,3.86
2018-03-31T04:31:13.944Z,3.92
2018-03-31T04:32:14.000Z,3.95
2018-03-31T04:33:14.052Z,4.07
2018-03-31T04:34:14.109Z,4.07
2018-03-31T04:35:14.161Z,3.88
2018-03-31T04:36:14.216Z,3.68
2018-03-31T04:37:14.270Z,3.80
2018-03-31T04:38:14.324Z,3.86
2018-03-31T04:39:14.377Z,3.86
2018-03-31T04:40:14.431Z,3.95
2018-03-31T04:41:14.486Z,4.02
2018-03-31T04:42:14.540Z,3.95
2018-03-31T04:43:14.593Z,3.99
2018-03-31T04:44:14.647Z,4.04
2018-03-31T04:45:14.701Z,3.98
2018-03-31T04:46:14.756Z,4.07
2018-03-31T04:47:14.815Z,3.89
2018-03-31T04:48:14.863Z,3.99
2018-03-31T04:49:14.917Z,3.90
2018-03-31T04:50:14.969Z,3.84
2018-03-31T04:51:15.023Z,3.89
2018-03-31T04:52:15.078Z,3.89
2018-03-31T04:53:15.133Z,3.88
2018-03-31T04:54:15.185Z,3.84
2018-03-31T04:55:15.243Z,3.75
2018-03-31T04:56:15.293Z,3.74
2018-03-31T04:57:15.347Z,3.64
2018-03-31T04:58:15.447Z,3.72
2018-03-31T04:59:15.453Z,3.72
2018-03-31T05:00:15.508Z,3.71
2018-03-31T05:01:15.562Z,3.75
2018-03-31T05:02:15.616Z,3.89
2018-03-31T05:03:15.672Z,3.95
2018-03-31T05:04:15.724Z,4.08
2018-03-31T05:05:15.778Z,4.11
2018-03-31T05:06:15.832Z,4.10
2018-03-31T05:07:15.884Z,4.08
2018-03-31T05:08:16.139Z,4.20
2018-03-31T05:09:15.993Z,4.24
2018-03-31T05:10:16.046Z,4.34
2018-03-31T05:11:16.100Z,4.44
2018-03-31T05:12:16.152Z,4.28
2018-03-31T05:13:16.207Z,4.21
2018-03-31T05:14:16.261Z,4.14
2018-03-31T05:15:16.314Z,4.18
2018-03-31T05:16:16.369Z,4.24
2018-03-31T05:17:16.423Z,4.08
2018-03-31T05:18:16.477Z,3.98
2018-03-31T05:19:16.533Z,3.86
2018-03-31T05:20:16.594Z,3.84
2018-03-31T05:21:16.641Z,3.98
2018-03-31T05:22:16.693Z,4.16
2018-03-31T05:23:16.748Z,4.21
2018-03-31T05:24:16.801Z,4.29
2018-03-31T05:25:16.854Z,4.18
2018-03-31T05:26:16.909Z,4.24
2018-03-31T05:27:16.963Z,4.20
2018-03-31T05:28:17.016Z,4.13
2018-03-31T05:29:17.073Z,4.13
2018-03-31T05:30:17.126Z,4.24
2018-03-31T05:31:17.178Z,4.25
2018-03-31T05:32:17.233Z,4.28
2018-03-31T05:33:17.287Z,4.20
2018-03-31T05:34:17.341Z,4.24
2018-03-31T05:35:17.394Z,4.13
2018-03-31T05:36:18.130Z,4.16
2018-03-31T05:37:17.504Z,4.13
2018-03-31T05:38:17.559Z,4.13
2018-03-31T05:39:17.610Z,3.93
2018-03-31T05:40:17.670Z,3.93
2018-03-31T05:41:17.720Z,3.75
2018-03-31T05:42:17.773Z,3.88
2018-03-31T05:43:17.829Z,3.89
2018-03-31T05:44:17.881Z,3.90
2018-03-31T05:45:17.970Z,3.82
2018-03-31T05:46:17.990Z,3.92
2018-03-31T05:47:18.043Z,3.98
2018-03-31T05:48:18.099Z,3.88
2018-03-31T05:49:18.153Z,3.88
2018-03-31T05:50:18.207Z,3.77
2018-03-31T05:51:18.266Z,3.74
2018-03-31T05:52:18.314Z,3.80
2018-03-31T05:53:18.371Z,3.77
2018-03-31T05:54:18.735Z,3.84
2018-03-31T05:55:18.484Z,3.89
2018-03-31T05:56:18.532Z,3.88
2018-03-31T05:57:18.597Z,3.86
2018-03-31T05:58:18.641Z,3.96
2018-03-31T05:59:18.695Z,3.98
2018-03-31T06:00:18.752Z,4.13
2018-03-31T06:01:18.805Z,4.11
2018-03-31T06:02:18.860Z,4.11
2018-03-31T06:03:18.913Z,4.14
2018-03-31T06:04:18.967Z,4.16
2018-03-31T06:05:19.023Z,4.07
2018-03-31T06:06:19.077Z,3.99
2018-03-31T06:07:19.130Z,3.95
2018-03-31T06:08:19.186Z,4.06
2018-03-31T06:09:19.240Z,4.10
2018-03-31T06:10:19.299Z,4.11
2018-03-31T06:11:19.348Z,4.11
2018-03-31T06:12:19.405Z,4.11
2018-03-31T06:13:19.459Z,4.13
2018-03-31T06:14:19.513Z,4.14
2018-03-31T06:15:19.566Z,4.06
2018-03-31T06:16:19.622Z,4.08
2018-03-31T06:17:19.675Z,3.98
2018-03-31T06:18:19.732Z,3.95
2018-03-31T06:19:19.786Z,4.04
2018-03-31T06:20:19.841Z,3.93
2018-03-31T06:21:19.895Z,4.00
2018-03-31T06:22:19.957Z,4.00
2018-03-31T06:23:20.004Z,4.07
2018-03-31T06:24:20.059Z,4.13
2018-03-31T06:25:20.114Z,4.07
2018-03-31T06:26:20.167Z,4.08
2018-03-31T06:27:20.223Z,4.16
2018-03-31T06:28:20.278Z,4.08
2018-03-31T06:29:20.332Z,4.13
2018-03-31T06:30:20.389Z,4.13
2018-03-31T06:31:20.446Z,4.20
2018-03-31T06:32:20.497Z,4.24
2018-03-31T06:33:20.551Z,4.21
2018-03-31T06:34:20.607Z,4.26
2018-03-31T06:35:20.660Z,4.25
2018-03-31T06:36:20.715Z,4.36
2018-03-31T06:37:20.774Z,4.42
2018-03-31T06:38:20.823Z,4.47
2018-03-31T06:39:20.878Z,4.50
2018-03-31T06:40:20.936Z,4.50
2018-03-31T06:41:20.988Z,4.56
2018-03-31T06:42:21.043Z,4.61
2018-03-31T06:43:21.099Z,4.61
2018-03-31T06:44:21.153Z,4.67
2018-03-31T06:45:21.214Z,4.68
2018-03-31T06:46:21.265Z,4.65
2018-03-31T06:47:21.321Z,4.64
2018-03-31T06:48:21.374Z,4.64
2018-03-31T06:49:21.430Z,4.67
2018-03-31T06:50:21.737Z,4.86
2018-03-31T06:51:21.542Z,4.83
2018-03-31T06:52:21.599Z,4.86
2018-03-31T06:53:21.651Z,4.94
2018-03-31T06:54:21.707Z,4.99
2018-03-31T06:55:21.765Z,5.04
2018-03-31T06:56:21.817Z,5.14
2018-03-31T06:57:21.875Z,5.22
2018-03-31T06:58:21.974Z,5.29
2018-03-31T06:59:21.986Z,5.30
2018-03-31T07:00:22.040Z,5.38
2018-03-31T07:01:22.098Z,5.42
2018-03-31T07:02:22.165Z,5.56
2018-03-31T07:03:22.209Z,5.56
2018-03-31T07:04:22.266Z,5.56
2018-03-31T07:05:22.322Z,5.42
2018-03-31T07:06:22.379Z,5.62
2018-03-31T07:07:22.437Z,5.59
2018-03-31T07:08:22.491Z,5.59
2018-03-31T07:09:22.548Z,5.67
2018-03-31T07:10:22.603Z,5.65
2018-03-31T07:11:22.659Z,5.75
2018-03-31T07:12:22.716Z,5.78
2018-03-31T07:13:22.773Z,5.88
2018-03-31T07:14:22.830Z,6.01
2018-03-31T07:15:22.886Z,5.93
2018-03-31T07:16:22.943Z,6.08
2018-03-31T07:17:23.000Z,6.06
2018-03-31T07:18:23.057Z,6.06
2018-03-31T07:19:23.112Z,5.96
2018-03-31T07:20:23.170Z,5.92
2018-03-31T07:21:23.228Z,5.98
2018-03-31T07:22:23.284Z,5.96
2018-03-31T07:23:23.340Z,6.03
2018-03-31T07:24:23.396Z,6.24
2018-03-31T07:25:23.453Z,6.33
2018-03-31T07:26:23.510Z,6.35
2018-03-31T07:27:23.566Z,6.28
2018-03-31T07:28:23.623Z,6.32
2018-03-31T07:29:23.681Z,6.35
2018-03-31T07:30:23.740Z,6.21
2018-03-31T07:31:23.801Z,6.32
2018-03-31T07:32:23.853Z,6.32
2018-03-31T07:33:23.909Z,6.33
2018-03-31T07:34:23.966Z,6.36
2018-03-31T07:35:24.024Z,6.35
2018-03-31T07:36:24.080Z,6.45
2018-03-31T07:37:24.138Z,6.38
2018-03-31T07:38:24.206Z,6.38
2018-03-31T07:39:24.252Z,6.45
2018-03-31T07:40:24.310Z,6.45
2018-03-31T07:41:24.367Z,6.46
2018-03-31T07:42:24.425Z,6.60
2018-03-31T07:43:24.529Z,6.60
2018-03-31T07:44:24.538Z,6.65
2018-03-31T07:45:24.595Z,6.65
2018-03-31T07:46:24.653Z,6.71
2018-03-31T07:47:24.709Z,6.57
2018-03-31T07:48:24.766Z,6.68
2018-03-31T07:49:24.824Z,6.54
2018-03-31T07:50:24.881Z,6.57
2018-03-31T07:51:24.949Z,6.53
2018-03-31T07:52:24.997Z,6.45
2018-03-31T07:53:25.053Z,6.46
2018-03-31T07:54:25.110Z,6.60
2018-03-31T07:55:25.167Z,6.51
2018-03-31T07:56:25.224Z,6.64
2018-03-31T07:57:25.282Z,6.69
2018-03-31T07:58:25.341Z,6.75
2018-03-31T07:59:25.395Z,6.83
2018-03-31T08:00:25.454Z,6.86
2018-03-31T08:01:25.510Z,6.89
2018-03-31T08:02:25.569Z,6.78
2018-03-31T08:03:25.624Z,6.81
2018-03-31T08:04:25.761Z,6.73
2018-03-31T08:05:25.739Z,6.75
2018-03-31T08:06:25.795Z,6.83
2018-03-31T08:07:25.854Z,6.89
2018-03-31T08:08:25.911Z,6.93
2018-03-31T08:09:25.971Z,6.89
2018-03-31T08:10:26.026Z,6.96
2018-03-31T08:11:26.081Z,6.90
2018-03-31T08:12:26.146Z,7.12
2018-03-31T08:13:26.221Z,7.12
2018-03-31T08:14:26.254Z,7.39
2018-03-31T08:15:26.313Z,7.39
2018-03-31T08:16:26.368Z,7.39
2018-03-31T08:17:26.425Z,7.45
2018-03-31T08:18:26.482Z,7.33
2018-03-31T08:19:26.538Z,7.39
2018-03-31T08:20:26.595Z,7.47
2018-03-31T08:21:26.653Z,7.47
2018-03-31T08:22:26.713Z,7.51
2018-03-31T08:23:26.772Z,7.55
2018-03-31T08:24:26.823Z,7.55
2018-03-31T08:25:26.896Z,7.57
2018-03-31T08:26:26.938Z,7.63
2018-03-31T08:27:26.996Z,7.58
2018-03-31T08:28:27.052Z,7.66
2018-03-31T08:29:27.115Z,7.71
2018-03-31T08:30:27.178Z,7.79
2018-03-31T08:31:27.225Z,7.88
2018-03-31T08:32:27.282Z,8.00
2018-03-31T08:33:27.340Z,8.10
2018-03-31T08:34:27.397Z,8.17
2018-03-31T08:35:27.704Z,8.22
2018-03-31T08:36:27.511Z,8.32
2018-03-31T08:37:27.568Z,8.28
2018-03-31T08:38:27.627Z,8.40
2018-03-31T08:39:27.683Z,8.36
2018-03-31T08:40:27.742Z,8.52
2018-03-31T08:41:27.801Z,8.52
2018-03-31T08:42:27.893Z,8.58
2018-03-31T08:43:27.913Z,8.58
2018-03-31T08:44:27.973Z,8.54
2018-03-31T08:45:28.029Z,8.58
2018-03-31T08:46:28.087Z,8.73
2018-03-31T08:47:28.145Z,8.70
2018-03-31T08:48:28.203Z,8.71
2018-03-31T08:49:28.260Z,8.76
2018-03-31T08:50:28.318Z,8.93
2018-03-31T08:51:28.375Z,8.89
2018-03-31T08:52:28.434Z,8.96
2018-03-31T08:53:28.491Z,8.97
2018-03-31T08:54:28.553Z,8.86
2018-03-31T08:55:28.606Z,8.79
2018-03-31T08:56:28.665Z,8.79
2018-03-31T08:57:28.724Z,8.73
2018-03-31T08:58:28.783Z,8.88
2018-03-31T08:59:28.840Z,8.93
2018-03-31T09:00:28.898Z,9.04
2018-03-31T09:01:28.956Z,9.00
2018-03-31T09:02:29.014Z,9.04
2018-03-31T09:03:29.072Z,9.17
2018-03-31T09:04:29.131Z,9.32
2018-03-31T09:05:29.188Z,9.49
2018-03-31T09:06:29.246Z,9.48
2018-03-31T09:07:29.305Z,9.75
2018-03-31T09:08:29.363Z,9.80
2018-03-31T09:09:29.421Z,9.86
2018-03-31T09:10:29.480Z,10.02
2018-03-31T09:11:29.536Z,10.06
2018-03-31T09:12:29.597Z,10.28
2018-03-31T09:13:29.656Z,10.39
2018-03-31T09:14:29.714Z,10.46
2018-03-31T09:15:29.770Z,10.44
2018-03-31T09:16:29.831Z,10.65
2018-03-31T09:17:30.511Z,10.72
2018-03-31T09:18:30.585Z,10.73
2018-03-31T09:19:30.563Z,10.83
2018-03-31T09:20:30.715Z,10.87
2018-03-31T09:21:30.664Z,10.87
2018-03-31T09:22:30.866Z,10.83
2018-03-31T09:23:30.245Z,10.91
2018-03-31T09:24:30.787Z,11.03
2018-03-31T09:25:30.791Z,11.20
2018-03-31T09:26:31.338Z,11.16
2018-03-31T09:27:30.976Z,11.31
2018-03-31T09:28:31.078Z,11.26
2018-03-31T09:29:31.155Z,11.30
2018-03-31T09:30:31.172Z,11.41
2018-03-31T09:31:30.786Z,11.36
2018-03-31T09:32:30.816Z,11.42
2018-03-31T09:33:30.833Z,11.42
2018-03-31T09:34:31.463Z,11.48
2018-03-31T09:35:31.589Z,11.46
2018-03-31T09:36:31.753Z,11.48
2018-03-31T09:37:31.739Z,11.49
2018-03-31T09:38:31.696Z,11.54
2018-03-31T09:39:31.188Z,11.60
2018-03-31T09:40:31.249Z,11.59
2018-03-31T09:41:31.308Z,11.60
2018-03-31T09:42:31.370Z,11.75
2018-03-31T09:43:31.430Z,11.82
2018-03-31T09:44:31.489Z,12.04
2018-03-31T09:45:31.547Z,12.13
2018-03-31T09:46:31.607Z,12.33
2018-03-31T09:47:31.668Z,12.52
2018-03-31T09:48:31.728Z,12.56
2018-03-31T09:49:31.789Z,12.56
2018-03-31T09:50:31.849Z,12.55
2018-03-31T09:51:31.908Z,12.52
2018-03-31T09:52:31.970Z,12.56
2018-03-31T09:53:32.031Z,12.56
2018-03-31T09:54:32.092Z,12.56
2018-03-31T09:55:32.150Z,12.34
2018-03-31T09:56:32.216Z,12.52
2018-03-31T09:57:32.274Z,12.55
2018-03-31T09:58:32.335Z,12.54
2018-03-31T09:59:32.394Z,12.62
2018-03-31T10:00:32.455Z,12.58
2018-03-31T10:01:32.516Z,12.46
2018-03-31T10:02:32.578Z,12.62
2018-03-31T10:03:32.638Z,12.63
2018-03-31T10:04:32.698Z,12.62
2018-03-31T10:05:32.760Z,12.74
2018-03-31T10:06:32.821Z,12.85
2018-03-31T10:07:32.881Z,12.67
2018-03-31T10:08:32.944Z,12.76
2018-03-31T10:09:33.002Z,12.69
2018-03-31T10:10:33.064Z,12.79
2018-03-31T10:11:33.124Z,12.84
2018-03-31T10:12:33.188Z,12.84
2018-03-31T10:13:33.246Z,12.88
2018-03-31T10:14:33.307Z,13.01
2018-03-31T10:15:33.369Z,13.35
2018-03-31T10:16:33.429Z,12.95
2018-03-31T10:17:33.492Z,12.77
2018-03-31T10:18:33.553Z,12.87
2018-03-31T10:19:33.611Z,12.85
2018-03-31T10:20:33.673Z,12.66
2018-03-31T10:21:33.742Z,12.77
2018-03-31T10:22:33.826Z,12.73
2018-03-31T10:23:33.857Z,12.88
2018-03-31T10:24:33.918Z,12.94
2018-03-31T10:25:33.980Z,12.91
2018-03-31T10:26:34.083Z,12.81
2018-03-31T10:27:34.100Z,12.99
2018-03-31T10:28:34.162Z,12.98
2018-03-31T10:29:34.577Z,12.96
2018-03-31T10:30:34.285Z,13.35
2018-03-31T10:31:34.353Z,13.66
2018-03-31T10:32:34.406Z,13.80
2018-03-31T10:33:34.467Z,13.86
2018-03-31T10:34:34.529Z,13.81
2018-03-31T10:35:34.594Z,13.48
2018-03-31T10:36:34.651Z,13.43
2018-03-31T10:37:34.711Z,13.44
2018-03-31T10:38:34.774Z,13.66
2018-03-31T10:39:35.090Z,13.88
2018-03-31T10:40:34.895Z,13.88
2018-03-31T10:41:34.960Z,14.06
2018-03-31T10:42:35.050Z,14.29
2018-03-31T10:43:35.083Z,14.46
2018-03-31T10:44:35.141Z,13.90
2018-03-31T10:45:35.204Z,14.02
2018-03-31T10:46:35.265Z,13.71
2018-03-31T10:47:35.325Z,13.91
2018-03-31T10:48:35.388Z,13.83
2018-03-31T10:49:35.448Z,14.19
2018-03-31T10:50:35.512Z,14.34
2018-03-31T10:51:35.575Z,14.41
2018-03-31T10:52:35.636Z,14.24
2018-03-31T10:53:35.703Z,14.53
2018-03-31T10:54:35.761Z,14.56
2018-03-31T10:55:35.823Z,14.87
2018-03-31T10:56:35.885Z,14.93
2018-03-31T10:57:35.950Z,14.48
2018-03-31T10:58:36.013Z,14.56
2018-03-31T10:59:36.074Z,14.87
2018-03-31T11:00:36.139Z,15.28
2018-03-31T11:01:36.204Z,15.86
2018-03-31T11:02:36.419Z,16.17
2018-03-31T11:03:36.332Z,16.69
2018-03-31T11:04:36.397Z,16.85
2018-03-31T11:05:36.503Z,16.67
2018-03-31T11:06:36.528Z,16.73
2018-03-31T11:07:36.592Z,15.73
2018-03-31T11:08:36.761Z,15.55
2018-03-31T11:09:36.724Z,16.40
2018-03-31T11:10:36.791Z,16.82
2018-03-31T11:11:36.856Z,17.38
2018-03-31T11:12:36.921Z,18.04
2018-03-31T11:13:36.987Z,18.19
2018-03-31T11:14:37.054Z,17.87
2018-03-31T11:15:37.131Z,17.54
2018-03-31T11:16:37.188Z,17.14
2018-03-31T11:17:37.256Z,17.18
2018-03-31T11:18:37.321Z,17.58
2018-03-31T11:19:37.451Z,17.54
2018-03-31T11:20:37.457Z,16.87
2018-03-31T11:21:37.530Z,17.45
2018-03-31T11:22:37.593Z,17.39
2018-03-31T11:23:37.663Z,17.92
2018-03-31T11:24:37.726Z,17.07
2018-03-31T11:25:37.797Z,16.27
2018-03-31T11:26:37.864Z,16.70
2018-03-31T11:27:37.931Z,17.55
2018-03-31T11:28:37.997Z,17.76
2018-03-31T11:29:38.067Z,17.22
2018-03-31T11:30:38.185Z,16.42
2018-03-31T11:31:38.202Z,16.29
2018-03-31T11:32:38.270Z,15.85
2018-03-31T11:33:38.339Z,15.62
2018-03-31T11:34:38.406Z,15.46
2018-03-31T11:35:38.473Z,15.59
2018-03-31T11:36:38.540Z,15.09
2018-03-31T11:37:38.607Z,14.86
2018-03-31T11:38:38.675Z,14.57
2018-03-31T11:39:38.740Z,14.57
2018-03-31T11:40:38.817Z,14.52
2018-03-31T11:41:39.123Z,14.54
2018-03-31T11:42:38.939Z,14.41
2018-03-31T11:43:39.003Z,14.41
2018-03-31T11:44:39.069Z,14.27
2018-03-31T11:45:39.134Z,14.11
2018-03-31T11:46:39.199Z,13.79
2018-03-31T11:47:39.263Z,13.59
2018-03-31T11:48:39.326Z,13.36
2018-03-31T11:49:39.392Z,13.27
2018-03-31T11:50:39.455Z,13.38
2018-03-31T11:51:39.517Z,13.47
2018-03-31T11:52:39.584Z,13.68
2018-03-31T11:53:39.647Z,13.57
2018-03-31T11:54:39.708Z,13.41
2018-03-31T11:55:39.770Z,13.61
2018-03-31T11:56:39.838Z,13.65
2018-03-31T11:57:39.898Z,13.68
2018-03-31T11:58:39.959Z,13.62
2018-03-31T11:59:40.021Z,13.59
2018-03-31T12:00:40.095Z,13.61
2018-03-31T12:01:40.146Z,13.61
2018-03-31T12:02:40.210Z,13.59
2018-03-31T12:03:40.269Z,13.55
2018-03-31T12:04:40.332Z,13.81
2018-03-31T12:05:40.393Z,13.79
2018-03-31T12:06:40.456Z,13.88
2018-03-31T12:07:40.517Z,14.01
2018-03-31T12:08:40.580Z,14.01
2018-03-31T12:09:40.643Z,13.84
2018-03-31T12:10:40.705Z,13.71
2018-03-31T12:11:40.765Z,13.61
2018-03-31T12:12:40.828Z,13.46
2018-03-31T12:13:40.889Z,13.53
2018-03-31T12:14:40.951Z,13.61
2018-03-31T12:15:41.013Z,13.59
2018-03-31T12:16:41.324Z,13.71
2018-03-31T12:17:41.137Z,13.73
2018-03-31T12:18:41.197Z,13.80
2018-03-31T12:19:41.259Z,13.83
2018-03-31T12:20:41.322Z,13.88
2018-03-31T12:21:41.383Z,13.94
2018-03-31T12:22:41.448Z,14.12
2018-03-31T12:23:41.504Z,15.07
2018-03-31T12:24:41.566Z,16.04
2018-03-31T12:25:41.628Z,16.66
2018-03-31T12:26:41.695Z,17.32
2018-03-31T12:27:41.751Z,18.10
2018-03-31T12:28:41.813Z,18.44
2018-03-31T12:29:41.878Z,16.42
2018-03-31T12:30:41.941Z,15.68
2018-03-31T12:31:42.001Z,15.37
2018-03-31T12:32:42.064Z,15.84
2018-03-31T12:33:42.128Z,17.18
2018-03-31T12:34:42.191Z,17.76
2018-03-31T12:35:42.257Z,19.02
2018-03-31T12:36:42.356Z,19.95
2018-03-31T12:37:42.380Z,20.01
2018-03-31T12:38:42.465Z,19.21
2018-03-31T12:39:42.514Z,20.13
2018-03-31T12:40:42.573Z,20.12
2018-03-31T12:41:42.649Z,19.82
2018-03-31T12:42:42.703Z,20.04
2018-03-31T12:43:42.768Z,19.92
2018-03-31T12:44:42.834Z,19.58
2018-03-31T12:45:42.900Z,18.60
2018-03-31T12:46:42.967Z,18.65
2018-03-31T12:47:43.032Z,18.66
2018-03-31T12:48:43.099Z,18.87
2018-03-31T12:49:43.167Z,18.46
2018-03-31T12:50:43.233Z,18.86
2018-03-31T12:51:43.302Z,18.82
2018-03-31T12:52:43.368Z,18.83
2018-03-31T12:53:43.432Z,19.05
2018-03-31T12:54:43.501Z,19.30
2018-03-31T12:55:43.569Z,19.34
2018-03-31T12:56:43.639Z,18.86
2018-03-31T12:57:43.704Z,18.79
2018-03-31T12:58:43.771Z,19.38
2018-03-31T12:59:43.839Z,19.52
2018-03-31T13:00:43.907Z,18.94
2018-03-31T13:01:43.975Z,18.36
2018-03-31T13:02:44.043Z,18.76
2018-03-31T13:03:44.110Z,19.13
2018-03-31T13:04:44.178Z,18.87
2018-03-31T13:05:44.246Z,19.16
2018-03-31T13:06:44.315Z,19.13
2018-03-31T13:07:44.382Z,19.31
2018-03-31T13:08:44.448Z,18.51
2018-03-31T13:09:44.517Z,17.00
2018-03-31T13:10:44.586Z,16.51
2018-03-31T13:11:44.652Z,16.25